createdAt,value
2018-02-20T09:27:21.000Z,23.50
2018-02-20T09:29:48.588Z,23.33
2018-02-20T09:32:16.156Z,21.10
2018-02-20T09:34:43.781Z,25.93
2018-02-20T09:37:11.330Z,24.37
2018-02-20T09:39:39.747Z,24.13
2018-02-20T09:42:07.316Z,25.50
2018-02-20T09:44:34.855Z,23.90
2018-02-20T09:47:02.427Z,24.90
2018-02-20T09:49:30.016Z,25.53
2018-02-20T09:51:57.555Z,26.10
2018-02-20T09:54:25.209Z,25.77
2018-02-20T09:56:53.399Z,24.30
2018-02-20T09:59:20.941Z,25.20
2018-02-20T10:01:48.510Z,26.67
2018-02-20T10:04:16.049Z,26.70
2018-02-20T10:06:43.582Z,24.53
2018-02-20T10:09:11.149Z,26.33
2018-02-20T10:11:40.152Z,27.23
2018-02-20T10:14:07.687Z,26.80
2018-02-20T10:16:35.263Z,27.93
2018-02-20T10:19:03.948Z,28.33
2018-02-20T10:21:32.572Z,27.60
2018-02-20T10:24:00.125Z,28.60
2018-02-20T10:26:27.699Z,25.37
2018-02-20T10:28:55.253Z,28.57
2018-02-20T10:31:22.809Z,27.37
2018-02-20T10:33:50.377Z,25.67
2018-02-20T10:36:17.913Z,22.83
2018-02-20T10:38:45.465Z,26.13
2018-02-20T10:41:13.012Z,27.40
2018-02-20T10:43:42.400Z,26.67
2018-02-20T10:46:10.718Z,27.83
2018-02-20T10:48:38.282Z,27.97
2018-02-20T10:51:05.807Z,28.17
2018-02-20T10:53:33.365Z,30.47
2018-02-20T10:56:00.917Z,28.13
2018-02-20T10:58:28.513Z,27.63
2018-02-20T11:00:56.099Z,26.80
2018-02-20T11:03:24.641Z,24.17
2018-02-20T11:05:52.187Z,24.03
2018-02-20T11:08:19.772Z,20.87
2018-02-20T11:10:47.340Z,18.13
2018-02-20T11:13:14.958Z,18.93
2018-02-20T11:15:43.288Z,20.87
2018-02-20T11:18:10.896Z,19.83
2018-02-20T11:20:38.480Z,19.77
2018-02-20T11:23:06.024Z,20.90
2018-02-20T11:25:33.571Z,20.93
2018-02-20T11:28:01.909Z,20.27
2018-02-20T11:30:29.458Z,20.33
2018-02-20T11:32:57.001Z,19.30
2018-02-20T11:35:24.566Z,20.00
2018-02-20T11:37:52.116Z,20.57
2018-02-20T11:40:19.723Z,19.73
2018-02-20T11:42:49.779Z,20.07
2018-02-20T11:45:18.339Z,19.10
2018-02-20T11:47:46.697Z,19.97
2018-02-20T11:50:15.472Z,20.67
2018-02-20T11:52:43.801Z,20.77
2018-02-20T11:55:12.126Z,20.97
2018-02-20T11:57:39.678Z,19.30
2018-02-20T12:00:07.428Z,17.90
2018-02-20T12:02:35.101Z,17.73
2018-02-20T12:05:03.570Z,17.40
2018-02-20T12:07:31.346Z,15.70
2018-02-20T12:09:58.893Z,16.53
2018-02-20T12:12:26.451Z,16.87
2018-02-20T12:14:54.011Z,19.27
2018-02-20T12:17:21.537Z,19.73
2018-02-20T12:19:49.811Z,19.60
2018-02-20T12:22:17.377Z,20.60
2018-02-20T12:24:46.653Z,21.90
2018-02-20T12:27:14.216Z,23.63
2018-02-20T12:29:41.767Z,20.33
2018-02-20T12:32:09.368Z,21.50
2018-02-20T12:34:37.684Z,20.30
2018-02-20T12:37:05.341Z,21.53
2018-02-20T12:39:33.001Z,23.20
2018-02-20T12:42:01.259Z,22.50
2018-02-20T12:44:29.052Z,21.40
2018-02-20T12:46:56.645Z,22.57
2018-02-20T12:49:24.188Z,21.97
2018-02-20T12:51:52.582Z,23.87
2018-02-20T12:54:21.104Z,26.63
2018-02-20T12:56:48.666Z,23.83
2018-02-20T12:59:17.425Z,23.13
2018-02-20T13:01:45.744Z,23.53
2018-02-20T13:04:14.319Z,25.10
2018-02-20T13:06:41.916Z,23.03
2018-02-20T13:09:09.480Z,24.77
2018-02-20T13:11:37.682Z,25.17
2018-02-20T13:14:06.004Z,25.70
2018-02-20T13:16:33.548Z,28.93
2018-02-20T13:19:01.110Z,28.23
2018-02-20T13:21:28.890Z,26.30
2018-02-20T13:23:56.430Z,30.13
2018-02-20T13:26:24.013Z,28.17
2018-02-20T13:28:51.561Z,31.47
2018-02-20T13:31:19.112Z,31.40
2018-02-20T13:33:46.697Z,30.13
2018-02-20T13:36:14.923Z,30.53
2018-02-20T13:38:43.260Z,30.87
2018-02-20T13:41:11.627Z,31.03
2018-02-20T13:43:40.468Z,28.87
2018-02-20T13:46:09.905Z,26.40
2018-02-20T13:48:37.550Z,31.23
2018-02-20T13:51:05.105Z,31.10
2018-02-20T13:53:34.760Z,29.33
2018-02-20T13:56:02.380Z,31.60
2018-02-20T13:58:30.807Z,29.43
2018-02-20T14:00:58.384Z,30.03
2018-02-20T14:03:25.960Z,30.43
2018-02-20T14:05:54.272Z,29.27
2018-02-20T14:08:21.837Z,28.37
2018-02-20T14:10:49.397Z,24.70
2018-02-20T14:13:16.957Z,27.87
2018-02-20T14:15:44.499Z,29.20
2018-02-20T14:18:12.094Z,27.73
2018-02-20T14:20:39.741Z,29.67
2018-02-20T14:23:07.294Z,28.43
2018-02-20T14:25:34.910Z,29.50
2018-02-20T14:28:02.522Z,28.37
2018-02-20T14:30:30.930Z,27.60
2018-02-20T14:32:58.488Z,28.80
2018-02-20T14:35:26.035Z,25.37
2018-02-20T14:37:53.592Z,27.97
2018-02-20T14:40:21.151Z,29.97
2018-02-20T14:42:48.701Z,27.10
2018-02-20T14:45:16.363Z,27.57
2018-02-20T14:47:43.933Z,29.07
2018-02-20T14:50:11.471Z,31.40
2018-02-20T14:52:39.030Z,26.13
2018-02-20T14:55:06.576Z,28.13
2018-02-20T14:57:34.144Z,27.00
2018-02-20T15:00:01.719Z,24.37
2018-02-20T15:02:29.256Z,24.50
2018-02-20T15:04:58.335Z,25.67
2018-02-20T15:07:27.018Z,25.73
2018-02-20T15:09:54.571Z,24.67
2018-02-20T15:12:22.131Z,23.07
2018-02-20T15:14:49.728Z,25.47
2018-02-20T15:17:17.269Z,26.40
2018-02-20T15:19:45.838Z,22.87
2018-02-20T15:22:14.478Z,22.87
2018-02-20T15:24:42.014Z,22.67
2018-02-20T15:27:09.589Z,23.70
2018-02-20T15:29:37.128Z,23.83
2018-02-20T15:32:04.672Z,23.13
2018-02-20T15:34:32.982Z,20.67
2018-02-20T15:37:00.525Z,23.87
2018-02-20T15:39:28.102Z,22.43
2018-02-20T15:41:55.652Z,22.57
2018-02-20T15:44:23.222Z,19.37
2018-02-20T15:46:51.368Z,23.00
2018-02-20T15:49:18.912Z,20.40
2018-02-20T15:51:48.356Z,23.33
2018-02-20T15:54:16.017Z,26.77
2018-02-20T15:56:43.600Z,25.87
2018-02-20T15:59:11.752Z,25.27
2018-02-20T16:01:39.293Z,24.47
2018-02-20T16:04:06.858Z,27.03
2018-02-20T16:06:34.640Z,26.07
2018-02-20T16:09:02.189Z,26.17
2018-02-20T16:11:29.723Z,26.37
2018-02-20T16:14:03.663Z,25.70
2018-02-20T16:16:31.472Z,25.47
2018-02-20T16:18:59.028Z,27.57
2018-02-20T16:21:26.575Z,25.87
2018-02-20T16:23:54.116Z,23.10
2018-02-20T16:26:21.698Z,23.83
2018-02-20T16:28:49.245Z,23.93
2018-02-20T16:31:16.811Z,24.70
2018-02-20T16:33:44.367Z,23.90
2018-02-20T16:36:11.901Z,24.53
2018-02-20T16:38:39.478Z,24.93
2018-02-20T16:41:07.020Z,23.53
2018-02-20T16:43:34.564Z,25.20
2018-02-20T16:46:02.125Z,26.83
2018-02-20T16:48:29.670Z,26.93
2018-02-20T16:50:58.078Z,26.70
2018-02-20T16:53:25.618Z,27.87
2018-02-20T16:55:53.200Z,25.03
2018-02-20T16:58:20.752Z,27.33
2018-02-20T17:00:48.308Z,27.80
2018-02-20T17:03:15.961Z,29.70
2018-02-20T17:05:43.562Z,32.83
2018-02-20T17:08:11.120Z,28.13
2018-02-20T17:10:38.712Z,26.63
2018-02-20T17:13:06.428Z,27.43
2018-02-20T17:15:34.089Z,29.93
2018-02-20T17:18:01.631Z,29.07
2018-02-20T17:20:29.641Z,27.87
2018-02-20T17:22:58.127Z,27.73
2018-02-20T17:25:25.712Z,27.27
2018-02-20T17:27:54.738Z,19.80
2018-02-20T17:30:22.291Z,23.27
2018-02-20T17:32:52.219Z,24.03
2018-02-20T17:35:20.764Z,23.10
2018-02-20T17:37:49.395Z,24.57
2018-02-20T17:40:18.576Z,25.43
2018-02-20T17:42:46.144Z,25.23
2018-02-20T17:45:15.771Z,25.40
2018-02-20T17:47:43.369Z,26.90
2018-02-20T17:50:12.630Z,27.23
2018-02-20T17:52:43.582Z,26.67
2018-02-20T17:55:11.461Z,26.67
2018-02-20T17:57:39.702Z,29.27
2018-02-20T18:00:10.803Z,29.53
2018-02-20T18:02:39.047Z,28.77
2018-02-20T18:05:07.213Z,31.27
2018-02-20T18:07:34.783Z,28.00
2018-02-20T18:10:03.643Z,29.97
2018-02-20T18:12:31.742Z,27.17
2018-02-20T18:15:02.590Z,27.87
2018-02-20T18:17:35.685Z,27.93
2018-02-20T18:20:03.623Z,26.00
2018-02-20T18:22:31.271Z,26.67
2018-02-20T18:24:58.986Z,26.13
2018-02-20T18:27:28.258Z,25.93
2018-02-20T18:29:56.739Z,23.23
2018-02-20T18:32:25.342Z,24.87
2018-02-20T18:34:53.136Z,27.33
2018-02-20T18:37:21.645Z,30.07
2018-02-20T18:39:49.494Z,28.13
2018-02-20T18:42:17.352Z,26.60
2018-02-20T18:44:45.675Z,27.77
2018-02-20T18:47:13.241Z,27.37
2018-02-20T18:49:41.560Z,26.80
2018-02-20T18:52:09.903Z,29.43
2018-02-20T18:54:38.693Z,25.10
2018-02-20T18:57:06.648Z,25.77
2018-02-20T18:59:34.984Z,27.47
2018-02-20T19:02:03.116Z,24.17
2018-02-20T19:04:32.218Z,26.00
2018-02-20T19:07:00.252Z,28.17
2018-02-20T19:09:28.708Z,26.47
2018-02-20T19:11:57.035Z,27.00
2018-02-20T19:14:24.834Z,25.10
2018-02-20T19:16:54.835Z,29.83
2018-02-20T19:19:22.425Z,30.50
2018-02-20T19:21:51.352Z,29.67
2018-02-20T19:24:19.307Z,28.63
2018-02-20T19:26:46.974Z,29.17
2018-02-20T19:29:14.553Z,28.70
2018-02-20T19:31:43.918Z,28.87
2018-02-20T19:34:11.519Z,29.17
2018-02-20T19:36:39.097Z,29.33
2018-02-20T19:39:06.684Z,30.47
2018-02-20T19:41:35.165Z,29.30
2018-02-20T19:44:03.510Z,30.27
2018-02-20T19:46:31.260Z,32.27
2018-02-20T19:48:58.971Z,32.30
2018-02-20T19:51:27.855Z,28.87
2018-02-20T19:53:56.175Z,29.13
2018-02-20T19:56:23.834Z,28.87
2018-02-20T19:58:52.872Z,30.07
2018-02-20T20:01:22.436Z,29.47
2018-02-20T20:03:57.139Z,31.83
2018-02-20T20:06:25.553Z,29.80
2018-02-20T20:08:53.127Z,29.53
2018-02-20T20:11:20.705Z,30.27
2018-02-20T20:14:00.937Z,30.60
2018-02-20T20:16:32.946Z,29.77
2018-02-20T20:19:01.482Z,30.73
2018-02-20T20:21:29.200Z,31.20
2018-02-20T20:23:56.778Z,32.57
2018-02-20T20:26:24.311Z,30.97
2018-02-20T20:28:51.905Z,34.10
2018-02-20T20:31:19.441Z,32.83
2018-02-20T20:33:47.797Z,30.53
2018-02-20T20:36:16.222Z,29.90
2018-02-20T20:38:43.882Z,32.27
2018-02-20T20:41:12.906Z,31.07
2018-02-20T20:43:40.640Z,32.73
2018-02-20T20:46:09.019Z,33.27
2018-02-20T20:48:36.590Z,34.47
2018-02-20T20:51:04.173Z,33.60
2018-02-20T20:53:31.750Z,32.00
2018-02-20T20:56:00.075Z,34.07
2018-02-20T20:58:27.656Z,33.37
2018-02-20T21:00:55.202Z,34.30
2018-02-20T21:03:22.775Z,30.70
2018-02-20T21:05:50.418Z,31.80
2018-02-20T21:08:18.082Z,31.47
2018-02-20T21:10:46.428Z,30.40
2018-02-20T21:13:14.814Z,29.50
2018-02-20T21:15:43.183Z,31.80
2018-02-20T21:18:12.622Z,32.93
2018-02-20T21:20:40.185Z,32.30
2018-02-20T21:23:07.750Z,32.27
2018-02-20T21:25:35.301Z,29.57
2018-02-20T21:28:02.875Z,33.00
2018-02-20T21:30:31.248Z,31.50
2018-02-20T21:32:59.600Z,34.10
2018-02-20T21:35:27.516Z,31.50
2018-02-20T21:37:55.098Z,34.03
2018-02-20T21:40:24.023Z,33.17
2018-02-20T21:42:51.614Z,32.67
2018-02-20T21:45:19.419Z,35.50
2018-02-20T21:47:46.992Z,31.97
2018-02-20T21:50:14.865Z,32.50
2018-02-20T21:52:42.425Z,31.87
2018-02-20T21:55:13.795Z,30.37
2018-02-20T21:57:41.398Z,32.87
2018-02-20T22:00:09.004Z,33.40
2018-02-20T22:02:36.872Z,31.83
2018-02-20T22:05:04.449Z,33.40
2018-02-20T22:07:32.061Z,30.27
2018-02-20T22:10:00.397Z,31.47
2018-02-20T22:12:28.040Z,32.87
2018-02-20T22:14:55.911Z,33.73
2018-02-20T22:17:23.475Z,32.73
2018-02-20T22:19:51.072Z,30.77
2018-02-20T22:22:19.310Z,32.30
2018-02-20T22:24:46.866Z,31.77
2018-02-20T22:27:14.429Z,32.67
2018-02-20T22:29:42.087Z,32.97
2018-02-20T22:32:09.648Z,31.87
2018-02-20T22:34:37.208Z,31.37
2018-02-20T22:37:05.296Z,33.60
2018-02-20T22:39:32.852Z,31.70
2018-02-20T22:42:00.396Z,36.30
2018-02-20T22:44:27.974Z,35.40
2018-02-20T22:46:57.751Z,30.40
2018-02-20T22:49:26.248Z,33.37
2018-02-20T22:51:53.837Z,29.50
2018-02-20T22:54:21.384Z,34.23
2018-02-20T22:56:49.008Z,32.33
2018-02-20T22:59:18.534Z,31.40
2018-02-20T23:01:46.114Z,30.03
2018-02-20T23:04:13.671Z,32.97
2018-02-20T23:06:41.244Z,31.47
2018-02-20T23:09:09.391Z,29.73
2018-02-20T23:11:47.938Z,31.20
2018-02-20T23:14:15.489Z,32.93
2018-02-20T23:16:43.040Z,30.63
2018-02-20T23:19:10.611Z,31.70
2018-02-20T23:21:38.183Z,33.27
2018-02-20T23:24:05.740Z,33.00
2018-02-20T23:26:34.086Z,31.37
2018-02-20T23:29:01.668Z,35.23
2018-02-20T23:31:29.223Z,34.47
2018-02-20T23:33:56.993Z,32.20
2018-02-20T23:36:24.560Z,32.50
2018-02-20T23:38:52.123Z,32.50
2018-02-20T23:41:19.694Z,30.07
2018-02-20T23:43:47.278Z,31.83
2018-02-20T23:46:15.584Z,28.87
2018-02-20T23:48:43.236Z,30.10
2018-02-20T23:51:16.519Z,28.83
2018-02-20T23:53:44.075Z,30.47
2018-02-20T23:56:12.396Z,33.37
2018-02-20T23:58:39.945Z,26.17
